createdAt,value
2018-11-11T00:02:12.851Z,5.67
2018-11-11T00:04:40.929Z,5.20
2018-11-11T00:07:08.998Z,5.00
2018-11-11T00:09:37.085Z,6.00
2018-11-11T00:12:05.244Z,5.40
2018-11-11T00:14:33.336Z,5.97
2018-11-11T00:17:01.416Z,4.50
2018-11-11T00:19:29.500Z,5.23
2018-11-11T00:21:57.596Z,4.47
2018-11-11T00:24:25.671Z,4.40
2018-11-11T00:26:53.754Z,4.20
2018-11-11T00:29:21.821Z,3.90
2018-11-11T00:31:49.910Z,3.97
2018-11-11T00:34:17.991Z,4.30
2018-11-11T00:36:46.083Z,4.40
2018-11-11T00:39:14.207Z,5.10
2018-11-11T00:41:42.348Z,3.80
2018-11-11T00:44:10.468Z,3.40
2018-11-11T00:46:38.586Z,4.40
2018-11-11T00:49:07.268Z,3.83
2018-11-11T00:51:35.382Z,3.90
2018-11-11T00:56:36.985Z,4.57
2018-11-11T00:59:05.510Z,4.23
2018-11-11T01:01:33.611Z,4.30
2018-11-11T01:04:01.706Z,4.30
2018-11-11T01:06:29.821Z,4.77
2018-11-11T01:08:57.937Z,4.33
2018-11-11T01:11:26.028Z,4.13
2018-11-11T01:13:54.148Z,4.80
2018-11-11T01:16:22.274Z,5.33
2018-11-11T01:18:50.426Z,4.83
2018-11-11T01:21:18.503Z,5.17
2018-11-11T01:23:46.611Z,5.27
2018-11-11T01:26:14.721Z,4.33
2018-11-11T01:28:42.840Z,5.60
2018-11-11T01:31:10.947Z,5.60
2018-11-11T01:33:39.049Z,5.63
2018-11-11T01:36:07.160Z,6.93
2018-11-11T01:38:35.323Z,4.97
2018-11-11T01:41:03.431Z,6.10
2018-11-11T01:43:31.608Z,5.70
2018-11-11T01:45:59.719Z,5.47
2018-11-11T01:48:27.833Z,6.30
2018-11-11T01:50:55.953Z,5.90
2018-11-11T01:53:24.072Z,5.67
2018-11-11T01:55:52.224Z,6.87
2018-11-11T01:58:20.320Z,5.27
2018-11-11T02:00:48.427Z,5.50
2018-11-11T02:03:16.575Z,5.43
2018-11-11T02:05:44.668Z,6.20
2018-11-11T02:08:12.791Z,5.13
2018-11-11T02:10:40.896Z,5.37
2018-11-11T02:13:09.027Z,5.23
2018-11-11T02:15:37.119Z,5.57
2018-11-11T02:18:05.710Z,5.53
2018-11-11T02:20:33.808Z,5.07
2018-11-11T02:23:01.935Z,5.00
2018-11-11T02:25:30.059Z,4.67
2018-11-11T02:27:58.164Z,4.87
2018-11-11T02:30:26.271Z,6.10
2018-11-11T02:32:54.388Z,6.83
2018-11-11T02:35:22.486Z,4.80
2018-11-11T02:37:50.622Z,5.30
2018-11-11T02:40:19.678Z,5.40
2018-11-11T02:42:48.360Z,5.37
2018-11-11T02:45:17.551Z,6.10
2018-11-11T02:47:45.667Z,5.63
2018-11-11T02:50:15.067Z,6.50
2018-11-11T02:52:43.728Z,6.83
2018-11-11T02:55:12.517Z,5.37
2018-11-11T02:57:41.097Z,5.50
2018-11-11T03:00:11.947Z,5.30
2018-11-11T03:02:40.317Z,5.50
2018-11-11T03:05:09.522Z,6.40
2018-11-11T03:07:37.897Z,5.10
2018-11-11T03:10:06.428Z,5.43
2018-11-11T03:12:34.552Z,5.27
2018-11-11T03:15:02.841Z,6.83
2018-11-11T03:17:30.957Z,6.80
2018-11-11T03:19:59.069Z,5.63
2018-11-11T03:22:27.166Z,5.87
2018-11-11T03:24:55.278Z,6.43
2018-11-11T03:27:23.379Z,6.20
2018-11-11T03:29:51.483Z,5.23
2018-11-11T03:32:19.621Z,5.70
2018-11-11T03:34:47.732Z,4.90
2018-11-11T03:37:15.830Z,4.67
2018-11-11T03:39:43.966Z,4.73
2018-11-11T03:42:12.069Z,4.20
2018-11-11T03:44:40.175Z,5.10
2018-11-11T03:47:08.292Z,5.13
2018-11-11T03:49:36.401Z,5.00
2018-11-11T03:52:04.680Z,5.00
2018-11-11T03:54:32.800Z,4.90
2018-11-11T03:57:00.900Z,4.17
2018-11-11T03:59:29.020Z,4.30
2018-11-11T04:01:57.151Z,4.47
2018-11-11T04:04:25.275Z,4.93
2018-11-11T04:06:53.372Z,5.10
2018-11-11T04:09:21.478Z,4.60
2018-11-11T04:11:49.600Z,5.50
2018-11-11T04:14:17.708Z,5.00
2018-11-11T04:16:45.825Z,5.00
2018-11-11T04:19:13.923Z,6.10
2018-11-11T04:21:42.060Z,5.10
2018-11-11T04:24:10.175Z,5.27
2018-11-11T04:26:38.315Z,4.10
2018-11-11T04:29:06.432Z,4.60
2018-11-11T04:31:34.578Z,4.70
2018-11-11T04:34:02.699Z,4.90
2018-11-11T04:36:30.818Z,6.03
2018-11-11T04:38:58.940Z,4.33
2018-11-11T04:41:27.092Z,5.33
2018-11-11T04:43:55.217Z,3.60
2018-11-11T04:46:23.401Z,4.80
2018-11-11T04:48:51.460Z,4.60
2018-11-11T04:51:19.575Z,5.57
2018-11-11T04:53:47.689Z,4.67
2018-11-11T04:56:15.797Z,5.17
2018-11-11T04:58:43.901Z,5.47
2018-11-11T05:01:12.031Z,5.17
2018-11-11T05:03:40.149Z,5.43
2018-11-11T05:06:08.328Z,4.33
2018-11-11T05:08:36.441Z,4.87
2018-11-11T05:11:04.566Z,4.00
2018-11-11T05:13:32.686Z,4.50
2018-11-11T05:16:00.821Z,4.13
2018-11-11T05:18:29.189Z,5.73
2018-11-11T05:20:57.301Z,5.20
2018-11-11T05:23:25.396Z,4.40
2018-11-11T05:25:53.522Z,5.80
2018-11-11T05:28:21.708Z,5.27
2018-11-11T05:30:49.885Z,5.20
2018-11-11T05:33:17.939Z,5.27
2018-11-11T05:35:46.095Z,4.57
2018-11-11T05:38:14.220Z,4.83
2018-11-11T05:40:42.342Z,4.90
2018-11-11T05:43:10.432Z,5.43
2018-11-11T05:45:38.534Z,6.40
2018-11-11T05:48:06.656Z,6.40
2018-11-11T05:50:34.783Z,5.60
2018-11-11T05:53:02.944Z,4.57
2018-11-11T05:55:31.035Z,4.80
2018-11-11T05:57:59.152Z,6.50
2018-11-11T06:00:27.264Z,5.80
2018-11-11T06:02:55.379Z,6.70
2018-11-11T06:05:23.485Z,5.30
2018-11-11T06:07:51.641Z,4.90
2018-11-11T06:10:19.758Z,5.00
2018-11-11T06:12:47.867Z,5.37
2018-11-11T06:15:15.983Z,4.40
2018-11-11T06:17:44.227Z,4.90
2018-11-11T06:20:13.908Z,5.37
2018-11-11T06:22:42.030Z,4.60
2018-11-11T06:25:10.504Z,4.83
2018-11-11T06:27:38.803Z,4.90
2018-11-11T06:30:07.579Z,4.97
2018-11-11T06:32:35.812Z,4.17
2018-11-11T06:35:03.971Z,4.40
2018-11-11T06:37:32.267Z,4.20
2018-11-11T06:40:00.408Z,3.90
2018-11-11T06:42:28.616Z,3.30
2018-11-11T06:44:56.720Z,4.00
2018-11-11T06:47:24.849Z,3.33
2018-11-11T06:49:52.961Z,3.37
2018-11-11T06:52:21.079Z,3.43
2018-11-11T06:54:49.196Z,3.50
2018-11-11T06:57:17.321Z,2.90
2018-11-11T06:59:45.432Z,2.83
2018-11-11T07:02:15.085Z,2.60
2018-11-11T07:04:43.204Z,3.00
2018-11-11T07:07:11.326Z,3.03
2018-11-11T07:09:39.441Z,2.40
2018-11-11T07:12:07.553Z,2.63
2018-11-11T07:14:35.674Z,2.80
2018-11-11T07:17:03.783Z,2.83
2018-11-11T07:19:31.882Z,2.83
2018-11-11T07:21:59.996Z,1.90
2018-11-11T07:24:28.129Z,2.80
2018-11-11T07:26:56.237Z,2.43
2018-11-11T07:29:24.348Z,2.53
2018-11-11T07:31:52.472Z,2.43
2018-11-11T07:34:20.597Z,2.40
2018-11-11T07:36:48.733Z,2.70
2018-11-11T07:39:16.871Z,2.60
2018-11-11T07:41:44.987Z,2.30
2018-11-11T07:44:13.095Z,3.10
2018-11-11T07:46:41.201Z,2.30
2018-11-11T07:49:09.311Z,2.43
2018-11-11T07:51:37.611Z,2.27
2018-11-11T07:54:05.903Z,2.20
2018-11-11T07:56:34.040Z,2.03
2018-11-11T07:59:02.320Z,2.23
2018-11-11T08:01:30.459Z,2.63
2018-11-11T08:03:58.705Z,2.80
2018-11-11T08:06:26.808Z,2.20
2018-11-11T08:08:54.946Z,2.27
2018-11-11T08:11:34.531Z,2.70
2018-11-11T08:14:02.664Z,2.70
2018-11-11T08:16:30.791Z,2.50
2018-11-11T08:18:58.887Z,2.87
2018-11-11T08:21:26.999Z,2.23
2018-11-11T08:23:55.127Z,2.53
2018-11-11T08:26:23.262Z,2.77
2018-11-11T08:28:51.392Z,2.20
2018-11-11T08:31:19.506Z,2.30
2018-11-11T08:33:47.612Z,3.20
2018-11-11T08:36:15.723Z,2.20
2018-11-11T08:38:43.844Z,2.53
2018-11-11T08:41:11.943Z,2.67
2018-11-11T08:43:40.087Z,2.90
2018-11-11T08:46:08.211Z,2.43
2018-11-11T08:48:36.323Z,2.23
2018-11-11T08:51:04.430Z,2.50
2018-11-11T08:53:32.557Z,2.10
2018-11-11T08:56:00.662Z,2.93
2018-11-11T08:58:28.784Z,2.33
2018-11-11T09:00:56.875Z,2.13
2018-11-11T09:03:25.000Z,2.20
2018-11-11T09:05:53.123Z,3.00
2018-11-11T09:08:21.253Z,2.97
2018-11-11T09:10:49.439Z,2.63
2018-11-11T09:13:17.584Z,2.80
2018-11-11T09:15:45.721Z,1.73
2018-11-11T09:18:13.831Z,2.37
2018-11-11T09:20:41.939Z,1.97
2018-11-11T09:23:10.041Z,2.00
2018-11-11T09:25:38.153Z,2.20
2018-11-11T09:28:06.268Z,1.60
2018-11-11T09:30:34.464Z,2.03
2018-11-11T09:33:02.500Z,2.10
2018-11-11T09:35:30.609Z,2.17
2018-11-11T09:37:58.736Z,1.90
2018-11-11T09:40:26.865Z,2.30
2018-11-11T09:42:54.962Z,1.90
2018-11-11T09:45:23.184Z,2.43
2018-11-11T09:47:51.494Z,2.50
2018-11-11T09:50:19.575Z,3.00
2018-11-11T09:52:47.751Z,2.90
2018-11-11T09:55:15.869Z,2.43
2018-11-11T09:57:44.003Z,3.50
2018-11-11T10:00:15.642Z,3.00
2018-11-11T10:02:46.587Z,3.00
2018-11-11T10:05:20.051Z,4.80
2018-11-11T10:08:12.599Z,3.03
2018-11-11T10:10:44.379Z,2.87
2018-11-11T10:13:24.544Z,3.20
2018-11-11T10:15:58.862Z,2.87
2018-11-11T10:18:41.133Z,2.50
2018-11-11T10:21:14.536Z,2.50
2018-11-11T10:23:53.683Z,2.20
2018-11-11T10:26:57.902Z,1.60
2018-11-11T10:31:35.235Z,2.33
2018-11-11T10:34:17.223Z,1.87
2018-11-11T10:36:53.581Z,2.20
2018-11-11T10:39:29.552Z,2.40
2018-11-11T10:42:02.953Z,2.03
2018-11-11T10:45:09.210Z,2.10
2018-11-11T10:47:45.475Z,2.03
2018-11-11T10:50:18.365Z,2.10
2018-11-11T10:52:46.474Z,1.90
2018-11-11T10:55:14.571Z,1.63
2018-11-11T10:57:42.687Z,1.90
2018-11-11T11:00:15.098Z,2.13
2018-11-11T11:02:48.703Z,2.10
2018-11-11T11:05:16.818Z,1.90
2018-11-11T11:07:44.903Z,2.00
2018-11-11T11:10:13.013Z,2.40
2018-11-11T11:12:41.111Z,2.20
2018-11-11T11:15:09.727Z,2.10
2018-11-11T11:17:38.321Z,2.10
2018-11-11T11:20:06.857Z,2.40
2018-11-11T11:22:35.076Z,2.17
2018-11-11T11:25:03.363Z,2.00
2018-11-11T11:27:31.459Z,1.93
2018-11-11T11:29:59.580Z,2.37
2018-11-11T11:32:27.693Z,2.40
2018-11-11T11:34:55.813Z,2.27
2018-11-11T11:37:23.991Z,2.00
2018-11-11T11:39:53.691Z,2.40
2018-11-11T11:42:21.787Z,2.47
2018-11-11T11:44:49.913Z,2.77
2018-11-11T11:47:18.021Z,2.70
2018-11-11T11:49:46.142Z,2.63
2018-11-11T11:52:14.280Z,2.50
2018-11-11T11:54:42.332Z,2.43
2018-11-11T11:57:16.827Z,3.90
2018-11-11T11:59:44.973Z,2.60
2018-11-11T12:02:13.198Z,2.10
2018-11-11T12:04:41.230Z,2.67
2018-11-11T12:07:09.342Z,2.03
2018-11-11T12:09:37.468Z,2.37
2018-11-11T12:12:05.731Z,2.70
2018-11-11T12:14:33.869Z,3.00
2018-11-11T12:17:02.089Z,3.03
2018-11-11T12:19:30.139Z,2.50
2018-11-11T12:21:58.258Z,2.20
2018-11-11T12:24:26.360Z,2.63
2018-11-11T12:26:54.491Z,2.33
2018-11-11T12:29:22.610Z,2.40
2018-11-11T12:31:50.728Z,2.53
2018-11-11T12:34:18.837Z,3.00
2018-11-11T12:36:46.948Z,2.70
2018-11-11T12:39:15.162Z,2.20
2018-11-11T12:41:43.192Z,2.63
2018-11-11T12:44:11.512Z,2.43
2018-11-11T12:46:39.740Z,2.60
2018-11-11T12:49:07.888Z,2.47
2018-11-11T12:51:35.916Z,3.00
2018-11-11T12:54:04.169Z,2.70
2018-11-11T12:56:32.324Z,2.80
2018-11-11T12:59:00.431Z,2.43
2018-11-11T13:01:28.555Z,2.60
2018-11-11T13:03:56.672Z,2.47
2018-11-11T13:06:24.975Z,2.03
2018-11-11T13:08:53.129Z,2.87
2018-11-11T13:11:21.251Z,2.47
2018-11-11T13:13:49.392Z,2.10
2018-11-11T13:16:17.503Z,2.47
2018-11-11T13:18:45.636Z,2.60
2018-11-11T13:21:13.748Z,3.00
2018-11-11T13:23:41.868Z,2.60
2018-11-11T13:26:09.994Z,2.20
2018-11-11T13:28:38.132Z,3.23
2018-11-11T13:31:06.736Z,2.40
2018-11-11T13:33:34.852Z,2.70
2018-11-11T13:36:02.968Z,2.40
2018-11-11T13:38:31.118Z,2.40
2018-11-11T13:40:59.228Z,2.40
2018-11-11T13:43:27.364Z,2.53
2018-11-11T13:45:55.484Z,2.27
2018-11-11T13:48:23.609Z,2.90
2018-11-11T13:50:51.711Z,2.10
2018-11-11T13:53:19.856Z,2.53
2018-11-11T13:55:48.025Z,2.50
2018-11-11T13:58:16.091Z,2.37
2018-11-11T14:00:44.242Z,2.07
2018-11-11T14:03:12.347Z,2.50
2018-11-11T14:05:40.456Z,2.60
2018-11-11T14:08:08.627Z,2.53
2018-11-11T14:10:36.686Z,2.20
2018-11-11T14:13:05.096Z,2.67
2018-11-11T14:15:33.191Z,2.40
2018-11-11T14:18:01.389Z,2.43
2018-11-11T14:20:29.488Z,2.13
2018-11-11T14:22:57.552Z,2.47
2018-11-11T14:25:28.045Z,2.17
2018-11-11T14:27:56.154Z,1.90
2018-11-11T14:30:25.498Z,2.70
2018-11-11T14:32:54.399Z,2.07
2018-11-11T14:35:22.497Z,2.20
2018-11-11T14:37:50.863Z,2.60
2018-11-11T14:40:22.306Z,2.40
2018-11-11T14:42:50.416Z,2.53
2018-11-11T14:45:19.267Z,1.73
2018-11-11T14:47:48.505Z,2.10
2018-11-11T14:50:17.358Z,2.00
2018-11-11T14:52:45.957Z,2.40
2018-11-11T14:55:16.525Z,2.27
2018-11-11T14:57:44.591Z,1.87
2018-11-11T15:00:16.868Z,2.40
2018-11-11T15:02:48.108Z,2.03
2018-11-11T15:05:16.206Z,2.10
2018-11-11T15:07:44.352Z,1.90
2018-11-11T15:10:13.525Z,1.57
2018-11-11T15:12:41.987Z,1.90
2018-11-11T15:15:16.305Z,1.80
2018-11-11T15:17:45.101Z,1.63
2018-11-11T15:20:14.359Z,2.00
2018-11-11T15:22:42.779Z,1.93
2018-11-11T15:25:12.679Z,1.77
2018-11-11T15:27:41.683Z,1.93
2018-11-11T15:30:12.811Z,1.80
2018-11-11T15:32:41.108Z,2.37
2018-11-11T15:35:09.220Z,1.80
2018-11-11T15:37:38.687Z,1.97
2018-11-11T15:40:12.092Z,1.73
2018-11-11T15:42:40.360Z,1.63
2018-11-11T15:45:11.733Z,2.07
2018-11-11T15:47:40.317Z,2.30
2018-11-11T15:50:12.694Z,1.80
2018-11-11T15:52:41.777Z,2.37
2018-11-11T15:55:10.968Z,2.00
2018-11-11T15:57:39.255Z,1.80
2018-11-11T16:00:09.551Z,1.87
2018-11-11T16:02:37.888Z,2.30
2018-11-11T16:05:06.298Z,1.97
2018-11-11T16:07:34.412Z,2.30
2018-11-11T16:10:02.546Z,1.97
2018-11-11T16:12:30.947Z,1.70
2018-11-11T16:14:59.070Z,1.77
2018-11-11T16:17:27.212Z,2.00
2018-11-11T16:19:55.600Z,1.80
2018-11-11T16:22:23.868Z,1.70
2018-11-11T16:24:52.148Z,2.20
2018-11-11T16:27:20.262Z,2.10
2018-11-11T16:29:48.367Z,2.20
2018-11-11T16:32:16.512Z,1.97
2018-11-11T16:34:44.591Z,1.80
2018-11-11T16:37:12.778Z,2.03
2018-11-11T16:39:40.892Z,2.40
2018-11-11T16:42:08.938Z,2.53
2018-11-11T16:44:37.060Z,2.20
2018-11-11T16:47:05.184Z,1.90
2018-11-11T16:49:33.332Z,2.50
2018-11-11T16:52:01.429Z,2.33
2018-11-11T16:54:29.545Z,2.40
2018-11-11T16:56:57.659Z,2.20
2018-11-11T16:59:25.827Z,2.33
2018-11-11T17:01:53.956Z,2.10
2018-11-11T17:04:22.107Z,2.60
2018-11-11T17:06:50.163Z,2.00
2018-11-11T17:09:18.269Z,2.10
2018-11-11T17:11:48.151Z,3.07
2018-11-11T17:14:16.296Z,2.77
2018-11-11T17:16:44.369Z,1.90
2018-11-11T17:19:12.649Z,2.47
2018-11-11T17:21:40.853Z,2.03
2018-11-11T17:24:08.890Z,2.10
2018-11-11T17:26:37.008Z,2.20
2018-11-11T17:29:05.280Z,2.20
2018-11-11T17:31:33.393Z,2.47
2018-11-11T17:34:01.500Z,2.00
2018-11-11T17:36:29.838Z,2.50
2018-11-11T17:38:57.968Z,1.90
2018-11-11T17:41:26.121Z,2.10
2018-11-11T17:43:54.212Z,2.87
2018-11-11T17:46:22.345Z,2.40
2018-11-11T17:48:50.444Z,2.43
2018-11-11T17:51:18.552Z,2.13
2018-11-11T17:53:46.656Z,2.50
2018-11-11T17:56:14.763Z,3.07
2018-11-11T17:58:42.867Z,2.43
2018-11-11T18:01:10.992Z,2.10
2018-11-11T18:03:39.329Z,3.20
2018-11-11T18:06:07.453Z,2.00
2018-11-11T18:08:35.581Z,2.23
2018-11-11T18:11:03.717Z,2.30
2018-11-11T18:13:31.822Z,2.20
2018-11-11T18:15:59.928Z,1.83
2018-11-11T18:18:28.040Z,2.00
2018-11-11T18:20:56.166Z,2.27
2018-11-11T18:23:24.296Z,2.07
2018-11-11T18:25:52.424Z,2.00
2018-11-11T18:28:20.605Z,2.27
2018-11-11T18:30:48.640Z,2.20
2018-11-11T18:33:16.752Z,1.77
2018-11-11T18:35:44.847Z,2.07
2018-11-11T18:38:12.969Z,1.83
2018-11-11T18:40:41.080Z,1.60
2018-11-11T18:43:09.189Z,2.13
2018-11-11T18:45:37.351Z,2.10
2018-11-11T18:48:06.089Z,2.20
2018-11-11T18:50:34.585Z,1.87
2018-11-11T18:53:03.476Z,2.20
2018-11-11T18:55:31.645Z,2.50
2018-11-11T18:58:00.041Z,1.67
2018-11-11T19:00:29.627Z,1.73
2018-11-11T19:02:58.070Z,2.23
2018-11-11T19:05:26.604Z,1.97
2018-11-11T19:07:55.085Z,1.80
2018-11-11T19:10:24.533Z,1.70
2018-11-11T19:12:54.009Z,2.17
2018-11-11T19:15:22.393Z,2.33
2018-11-11T19:17:51.267Z,1.70
2018-11-11T19:20:20.664Z,1.90
2018-11-11T19:22:48.823Z,1.80
2018-11-11T19:25:19.305Z,1.83
2018-11-11T19:27:48.674Z,2.07
2018-11-11T19:30:17.737Z,1.83
2018-11-11T19:32:46.572Z,1.73
2018-11-11T19:35:15.365Z,1.40
2018-11-11T19:37:44.452Z,1.90
2018-11-11T19:40:14.795Z,2.10
2018-11-11T19:42:43.360Z,1.57
2018-11-11T19:45:12.976Z,2.20
2018-11-11T19:47:41.543Z,1.87
2018-11-11T19:50:11.568Z,2.00
2018-11-11T19:52:40.959Z,2.60
2018-11-11T19:55:09.905Z,2.30
2018-11-11T19:57:38.143Z,1.57
2018-11-11T20:00:09.248Z,2.00
2018-11-11T20:02:37.400Z,2.57
2018-11-11T20:05:07.636Z,1.70
2018-11-11T20:07:35.748Z,3.07
2018-11-11T20:10:04.218Z,1.93
2018-11-11T20:12:32.334Z,2.10
2018-11-11T20:15:00.456Z,1.43
2018-11-11T20:17:28.588Z,2.10
2018-11-11T20:19:56.683Z,1.50
2018-11-11T20:22:24.797Z,1.90
2018-11-11T20:24:52.907Z,1.70
2018-11-11T20:27:21.011Z,1.50
2018-11-11T20:29:49.160Z,1.17
2018-11-11T20:32:17.256Z,1.40
2018-11-11T20:34:45.417Z,1.27
2018-11-11T20:37:13.582Z,1.90
2018-11-11T20:39:41.624Z,1.80
2018-11-11T20:42:09.743Z,1.70
2018-11-11T20:44:37.869Z,1.90
2018-11-11T20:47:05.984Z,1.90
2018-11-11T20:49:34.156Z,2.53
2018-11-11T20:52:02.200Z,2.20
2018-11-11T20:54:30.298Z,2.13
2018-11-11T20:56:58.544Z,1.90
2018-11-11T20:59:26.507Z,1.87
2018-11-11T21:01:54.637Z,2.03
2018-11-11T21:04:22.742Z,2.10
2018-11-11T21:06:50.869Z,1.77
2018-11-11T21:09:19.050Z,2.67
2018-11-11T21:11:47.092Z,2.00
2018-11-11T21:14:15.198Z,2.20
2018-11-11T21:16:43.314Z,1.60
2018-11-11T21:19:11.457Z,2.67
2018-11-11T21:21:39.551Z,2.57
2018-11-11T21:24:07.656Z,2.03
2018-11-11T21:26:35.762Z,2.00
2018-11-11T21:29:03.879Z,3.13
2018-11-11T21:31:31.992Z,2.80
2018-11-11T21:34:00.084Z,2.17
2018-11-11T21:36:28.224Z,1.80
2018-11-11T21:38:56.364Z,2.90
2018-11-11T21:41:24.489Z,2.60
2018-11-11T21:43:52.604Z,2.03
2018-11-11T21:46:20.719Z,2.53
2018-11-11T21:48:48.836Z,2.47
2018-11-11T21:51:16.949Z,2.17
2018-11-11T21:53:45.068Z,3.30
2018-11-11T21:56:13.185Z,2.57
2018-11-11T21:58:41.363Z,2.17
2018-11-11T22:01:09.417Z,2.27
2018-11-11T22:03:37.525Z,1.30
2018-11-11T22:06:05.816Z,1.70
2018-11-11T22:08:33.950Z,1.90
2018-11-11T22:11:02.223Z,1.27
2018-11-11T22:13:30.323Z,1.20
2018-11-11T22:15:58.523Z,1.47
2018-11-11T22:18:26.557Z,0.90
2018-11-11T22:20:54.667Z,1.50
2018-11-11T22:23:22.783Z,1.50
2018-11-11T22:25:50.901Z,1.30
2018-11-11T22:28:19.013Z,0.90
2018-11-11T22:30:47.125Z,0.90
2018-11-11T22:33:15.257Z,0.77
2018-11-11T22:35:43.368Z,0.70
2018-11-11T22:38:11.677Z,0.60
2018-11-11T22:43:14.330Z,0.70
2018-11-11T22:45:42.436Z,0.63
2018-11-11T22:48:10.564Z,0.80
2018-11-11T22:50:38.673Z,0.67
2018-11-11T22:53:06.796Z,0.70
2018-11-11T22:55:34.915Z,0.70
2018-11-11T22:58:03.080Z,0.60
2018-11-11T23:00:31.999Z,0.70
2018-11-11T23:03:00.382Z,0.80
2018-11-11T23:05:28.501Z,0.70
2018-11-11T23:07:56.620Z,0.63
2018-11-11T23:10:24.729Z,0.60
2018-11-11T23:12:52.837Z,0.50
2018-11-11T23:15:21.884Z,0.43
2018-11-11T23:17:50.004Z,0.50
2018-11-11T23:20:19.360Z,0.50
2018-11-11T23:22:47.476Z,0.60
2018-11-11T23:25:19.776Z,0.70
2018-11-11T23:27:47.886Z,0.80
2018-11-11T23:30:17.675Z,0.47
2018-11-11T23:32:46.275Z,0.70
2018-11-11T23:35:14.377Z,0.50
2018-11-11T23:37:43.027Z,1.03
2018-11-11T23:40:12.245Z,0.50
2018-11-11T23:42:41.122Z,0.70
2018-11-11T23:45:09.296Z,0.80
2018-11-11T23:47:37.483Z,0.63
2018-11-11T23:50:08.685Z,0.90
2018-11-11T23:52:36.771Z,0.60
2018-11-11T23:55:06.043Z,0.43
2018-11-11T23:57:34.241Z,0.80
